createdAt,value
2022-11-05T00:00:37.165Z,9.91
2022-11-05T00:02:27.886Z,9.90
2022-11-05T00:04:08.336Z,9.97
2022-11-05T00:05:58.819Z,9.96
2022-11-05T00:07:59.318Z,10.00
2022-11-05T00:09:33.025Z,10.07
2022-11-05T00:11:05.131Z,10.08
2022-11-05T00:12:55.968Z,10.09
2022-11-05T00:14:46.467Z,10.11
2022-11-05T00:16:37.195Z,10.13
2022-11-05T00:18:09.287Z,10.17
2022-11-05T00:19:41.299Z,10.16
2022-11-05T00:21:33.524Z,10.21
2022-11-05T00:23:26.113Z,10.27
2022-11-05T00:25:16.735Z,10.28
2022-11-05T00:26:48.697Z,10.28
2022-11-05T00:28:20.720Z,10.29
2022-11-05T00:29:52.912Z,10.33
2022-11-05T00:31:25.017Z,10.32
2022-11-05T00:33:02.620Z,10.37
2022-11-05T00:34:34.742Z,10.33
2022-11-05T00:36:08.347Z,10.31
2022-11-05T00:37:42.379Z,10.28
2022-11-05T00:39:17.729Z,10.24
2022-11-05T00:40:49.759Z,10.24
2022-11-05T00:42:40.351Z,10.27
2022-11-05T00:44:31.038Z,10.33
2022-11-05T00:46:03.090Z,10.36
2022-11-05T00:47:54.031Z,10.37
2022-11-05T00:49:32.003Z,10.39
2022-11-05T00:51:04.385Z,10.44
2022-11-05T00:53:02.701Z,10.45
2022-11-05T00:54:34.663Z,10.48
2022-11-05T00:56:06.885Z,10.47
2022-11-05T00:57:38.918Z,10.46
2022-11-05T00:59:10.906Z,10.45
2022-11-05T01:00:45.230Z,10.48
2022-11-05T01:02:17.449Z,10.47
2022-11-05T01:05:23.454Z,10.51
2022-11-05T01:06:55.672Z,10.50
2022-11-05T01:08:28.384Z,10.55
2022-11-05T01:10:00.510Z,10.55
2022-11-05T01:11:37.450Z,10.56
2022-11-05T01:13:12.931Z,10.58
2022-11-05T01:14:45.482Z,10.58
2022-11-05T01:16:17.550Z,10.59
2022-11-05T01:17:51.344Z,10.63
2022-11-05T01:19:23.362Z,10.59
2022-11-05T01:20:55.284Z,10.61
2022-11-05T01:22:27.403Z,10.62
2022-11-05T01:23:59.541Z,10.64
2022-11-05T01:25:31.825Z,10.65
2022-11-05T01:27:03.815Z,10.66
2022-11-05T01:28:35.894Z,10.67
2022-11-05T01:30:09.087Z,10.70
2022-11-05T01:31:41.372Z,10.67
2022-11-05T01:33:13.631Z,10.68
2022-11-05T01:34:45.862Z,10.68
2022-11-05T01:36:21.050Z,10.66
2022-11-05T01:37:53.065Z,10.62
2022-11-05T01:39:25.095Z,10.62
2022-11-05T01:40:57.167Z,10.60
2022-11-05T01:42:30.941Z,10.62
2022-11-05T01:44:03.611Z,10.61
2022-11-05T01:45:35.734Z,10.61
2022-11-05T01:47:08.163Z,10.59
2022-11-05T01:48:40.306Z,10.55
2022-11-05T01:50:24.563Z,10.55
2022-11-05T01:51:57.591Z,10.56
2022-11-05T01:53:39.162Z,10.57
2022-11-05T01:55:11.893Z,10.54
2022-11-05T01:56:46.734Z,10.52
2022-11-05T01:58:22.712Z,10.46
2022-11-05T01:59:57.086Z,10.40
2022-11-05T02:01:29.702Z,10.40
2022-11-05T02:03:04.162Z,10.39
2022-11-05T02:04:42.365Z,10.42
2022-11-05T02:06:17.040Z,10.43
2022-11-05T02:07:49.355Z,10.43
2022-11-05T02:09:25.010Z,10.42
2022-11-05T02:10:57.583Z,10.40
2022-11-05T02:12:30.609Z,10.39
2022-11-05T02:14:02.601Z,10.35
2022-11-05T02:15:52.604Z,10.37
2022-11-05T02:17:48.066Z,10.41
2022-11-05T02:19:56.894Z,10.42
2022-11-05T02:22:04.077Z,10.43
2022-11-05T02:24:08.020Z,10.43
2022-11-05T02:26:08.077Z,10.44
2022-11-05T02:28:03.711Z,10.43
2022-11-05T02:30:06.865Z,10.41
2022-11-05T02:32:00.147Z,10.40
2022-11-05T02:34:03.966Z,10.42
2022-11-05T02:35:56.691Z,10.39
2022-11-05T02:37:39.645Z,10.37
2022-11-05T02:40:05.539Z,10.37
2022-11-05T02:41:51.704Z,10.38
2022-11-05T02:43:34.051Z,10.38
2022-11-05T02:45:11.940Z,10.34
2022-11-05T02:47:02.915Z,10.31
2022-11-05T02:48:53.472Z,10.34
2022-11-05T02:50:36.756Z,10.30
2022-11-05T02:52:31.984Z,10.28
2022-11-05T02:54:33.004Z,10.24
2022-11-05T02:56:18.960Z,10.24
2022-11-05T02:57:51.054Z,10.22
2022-11-05T02:59:23.054Z,10.21
2022-11-05T03:00:57.521Z,10.23
2022-11-05T03:04:02.027Z,10.27
2022-11-05T03:05:44.320Z,10.27
2022-11-05T03:07:38.726Z,10.25
2022-11-05T03:09:28.763Z,10.22
2022-11-05T03:11:22.321Z,10.17
2022-11-05T03:12:54.353Z,10.11
2022-11-05T03:14:46.011Z,10.12
2022-11-05T03:16:46.347Z,10.13
2022-11-05T03:18:27.702Z,10.15
2022-11-05T03:20:18.104Z,10.13
2022-11-05T03:21:54.443Z,10.18
2022-11-05T03:24:04.516Z,10.20
2022-11-05T03:25:41.375Z,10.12
2022-11-05T03:27:16.553Z,10.12
2022-11-05T03:28:55.272Z,10.12
2022-11-05T03:30:27.405Z,10.05
2022-11-05T03:33:32.054Z,9.96
2022-11-05T03:35:29.314Z,9.95
2022-11-05T03:37:02.159Z,9.97
2022-11-05T03:38:39.438Z,9.98
2022-11-05T03:40:12.674Z,9.97
2022-11-05T03:41:45.877Z,9.95
2022-11-05T03:43:19.687Z,9.92
2022-11-05T03:44:56.201Z,9.89
2022-11-05T03:46:37.259Z,9.86
2022-11-05T03:48:11.304Z,9.85
2022-11-05T03:49:56.485Z,9.82
2022-11-05T03:51:50.232Z,9.83
2022-11-05T03:53:26.019Z,9.79
2022-11-05T03:54:58.055Z,9.79
2022-11-05T03:56:55.727Z,9.82
2022-11-05T03:58:28.480Z,9.81
2022-11-05T04:00:00.614Z,9.79
2022-11-05T04:01:32.852Z,9.76
2022-11-05T04:03:05.025Z,9.69
2022-11-05T04:04:40.445Z,9.63
2022-11-05T04:06:30.816Z,9.52
2022-11-05T04:08:21.396Z,9.46
2022-11-05T04:10:15.063Z,9.41
2022-11-05T04:12:05.827Z,9.41
2022-11-05T04:13:37.999Z,9.42
2022-11-05T04:15:09.991Z,9.42
2022-11-05T04:17:00.606Z,9.40
2022-11-05T04:18:32.684Z,9.36
2022-11-05T04:20:23.604Z,9.36
2022-11-05T04:22:14.241Z,9.35
2022-11-05T04:24:04.854Z,9.37
2022-11-05T04:25:36.815Z,9.38
2022-11-05T04:27:11.511Z,9.37
2022-11-05T04:29:07.623Z,9.41
2022-11-05T04:30:40.687Z,9.42
2022-11-05T04:32:12.831Z,9.41
2022-11-05T04:33:44.818Z,9.40
2022-11-05T04:35:16.928Z,9.36
2022-11-05T04:36:50.208Z,9.32
2022-11-05T04:38:22.326Z,9.25
2022-11-05T04:39:54.419Z,9.21
2022-11-05T04:41:26.742Z,9.22
2022-11-05T04:42:58.807Z,9.24
2022-11-05T04:44:30.880Z,9.26
2022-11-05T04:46:02.930Z,9.26
2022-11-05T04:47:34.897Z,9.30
2022-11-05T04:49:06.990Z,9.28
2022-11-05T04:50:39.622Z,9.31
2022-11-05T04:52:11.693Z,9.34
2022-11-05T04:53:43.808Z,9.31
2022-11-05T04:55:16.246Z,9.31
2022-11-05T04:56:48.271Z,9.30
2022-11-05T04:58:20.354Z,9.27
2022-11-05T04:59:52.544Z,9.23
2022-11-05T05:01:25.793Z,9.21
2022-11-05T05:02:58.007Z,9.19
2022-11-05T05:04:30.009Z,9.15
2022-11-05T05:06:04.006Z,9.13
2022-11-05T05:07:36.441Z,9.13
2022-11-05T05:09:08.551Z,9.11
2022-11-05T05:10:40.505Z,9.11
2022-11-05T05:12:12.839Z,9.11
2022-11-05T05:13:45.259Z,9.16
2022-11-05T05:15:17.370Z,9.20
2022-11-05T05:16:49.366Z,9.24
2022-11-05T05:18:21.342Z,9.28
2022-11-05T05:20:12.094Z,9.32
2022-11-05T05:21:44.085Z,9.36
2022-11-05T05:23:16.075Z,9.40
2022-11-05T05:24:52.571Z,9.43
2022-11-05T05:26:25.024Z,9.43
2022-11-05T05:27:58.385Z,9.46
2022-11-05T05:29:30.379Z,9.48
2022-11-05T05:31:02.507Z,9.50
2022-11-05T05:32:34.491Z,9.51
2022-11-05T05:34:07.880Z,9.52
2022-11-05T05:35:42.425Z,9.57
2022-11-05T05:37:14.992Z,9.50
2022-11-05T05:38:47.359Z,9.47
2022-11-05T05:40:19.377Z,9.45
2022-11-05T05:41:51.676Z,9.40
2022-11-05T05:43:23.751Z,9.43
2022-11-05T05:44:55.756Z,9.42
2022-11-05T05:46:27.864Z,9.41
2022-11-05T05:48:00.156Z,9.42
2022-11-05T05:49:32.730Z,9.44
2022-11-05T05:51:07.155Z,9.50
2022-11-05T05:52:39.377Z,9.51
2022-11-05T05:54:12.348Z,9.58
2022-11-05T05:55:44.529Z,9.61
2022-11-05T05:57:16.877Z,9.64
2022-11-05T05:58:49.253Z,9.68
2022-11-05T06:00:24.964Z,9.69
2022-11-05T06:01:57.137Z,9.74
2022-11-05T06:03:29.295Z,9.78
2022-11-05T06:05:01.327Z,9.81
2022-11-05T06:06:33.486Z,9.83
2022-11-05T06:08:06.217Z,9.83
2022-11-05T06:09:38.628Z,9.86
2022-11-05T06:11:11.094Z,9.87
2022-11-05T06:12:43.917Z,9.89
2022-11-05T06:14:16.112Z,9.90
2022-11-05T06:15:48.321Z,9.92
2022-11-05T06:17:20.599Z,9.96
2022-11-05T06:18:52.776Z,9.98
2022-11-05T06:20:24.939Z,10.01
2022-11-05T06:21:57.120Z,10.04
2022-11-05T06:23:32.039Z,10.13
2022-11-05T06:25:05.333Z,10.16
2022-11-05T06:26:43.148Z,10.21
2022-11-05T06:28:15.541Z,10.28
2022-11-05T06:31:20.807Z,10.37
2022-11-05T06:32:53.237Z,10.41
2022-11-05T06:34:25.568Z,10.47
2022-11-05T06:36:04.332Z,10.55
2022-11-05T06:37:36.674Z,10.57
2022-11-05T06:39:12.811Z,10.67
2022-11-05T06:40:44.967Z,10.69
2022-11-05T06:42:18.682Z,10.77
2022-11-05T06:43:51.396Z,10.84
2022-11-05T06:45:23.474Z,10.88
2022-11-05T06:46:55.740Z,10.92
2022-11-05T06:48:28.934Z,10.97
2022-11-05T06:50:00.948Z,11.01
2022-11-05T06:51:33.086Z,11.04
2022-11-05T06:53:06.585Z,11.09
2022-11-05T06:54:38.456Z,11.20
2022-11-05T06:56:10.890Z,11.21
2022-11-05T06:57:42.913Z,11.25
2022-11-05T06:59:15.239Z,11.29
2022-11-05T07:00:47.606Z,11.32
2022-11-05T07:02:19.882Z,11.35
2022-11-05T07:03:52.035Z,11.41
2022-11-05T07:05:27.489Z,11.49
2022-11-05T07:07:01.409Z,11.51
2022-11-05T07:08:38.219Z,11.58
2022-11-05T07:10:16.373Z,11.64
2022-11-05T07:11:48.589Z,11.66
2022-11-05T07:13:20.928Z,11.73
2022-11-05T07:14:53.044Z,11.76
2022-11-05T07:16:25.279Z,11.86
2022-11-05T07:18:01.458Z,11.97
2022-11-05T07:19:33.898Z,11.98
2022-11-05T07:21:06.305Z,12.04
2022-11-05T07:22:38.776Z,12.10
2022-11-05T07:24:11.203Z,12.16
2022-11-05T07:25:44.188Z,12.22
2022-11-05T07:27:17.236Z,12.26
2022-11-05T07:28:50.561Z,12.32
2022-11-05T07:30:23.119Z,12.39
2022-11-05T07:31:55.403Z,12.46
2022-11-05T07:33:31.151Z,12.51
2022-11-05T07:35:07.245Z,12.60
2022-11-05T07:36:40.768Z,12.69
2022-11-05T07:38:12.890Z,12.70
2022-11-05T07:39:45.261Z,12.75
2022-11-05T07:41:17.853Z,12.82
2022-11-05T07:42:52.445Z,12.85
2022-11-05T07:44:25.398Z,12.89
2022-11-05T07:45:57.608Z,12.90
2022-11-05T07:47:30.282Z,12.93
2022-11-05T07:49:02.655Z,12.96
2022-11-05T07:50:38.436Z,13.04
2022-11-05T07:52:10.807Z,13.04
2022-11-05T07:53:45.435Z,13.08
2022-11-05T07:55:19.363Z,13.15
2022-11-05T07:56:51.814Z,13.19
2022-11-05T07:58:33.172Z,13.22
2022-11-05T08:00:05.913Z,13.26
2022-11-05T08:01:38.280Z,13.31
2022-11-05T08:03:16.580Z,13.35
2022-11-05T08:04:49.157Z,13.35
2022-11-05T08:06:21.348Z,13.41
2022-11-05T08:07:57.752Z,13.48
2022-11-05T08:09:29.971Z,13.46
2022-11-05T08:11:06.440Z,13.51
2022-11-05T08:12:38.507Z,13.54
2022-11-05T08:14:10.750Z,13.59
2022-11-05T08:15:43.791Z,13.61
2022-11-05T08:17:18.512Z,13.65
2022-11-05T08:18:51.039Z,13.68
2022-11-05T08:20:23.388Z,13.77
2022-11-05T08:21:55.547Z,13.82
2022-11-05T08:23:28.773Z,13.89
2022-11-05T08:25:05.649Z,13.94
2022-11-05T08:26:39.205Z,14.02
2022-11-05T08:29:59.514Z,14.15
2022-11-05T08:31:32.487Z,14.24
2022-11-05T08:33:11.572Z,14.33
2022-11-05T08:34:44.107Z,14.34
2022-11-05T08:36:16.436Z,14.42
2022-11-05T08:37:48.592Z,14.48
2022-11-05T08:39:20.913Z,14.54
2022-11-05T08:40:58.056Z,14.67
2022-11-05T08:42:30.389Z,14.71
2022-11-05T08:44:02.928Z,14.78
2022-11-05T08:45:38.292Z,14.86
2022-11-05T08:47:10.646Z,14.93
2022-11-05T08:48:43.256Z,15.01
2022-11-05T08:50:15.603Z,15.05
2022-11-05T08:51:48.168Z,15.08
2022-11-05T08:53:20.847Z,15.14
2022-11-05T08:54:53.318Z,15.18
2022-11-05T08:56:25.644Z,15.26
2022-11-05T08:58:03.147Z,15.35
2022-11-05T08:59:35.457Z,15.39
2022-11-05T09:01:07.679Z,15.46
2022-11-05T09:02:40.316Z,15.52
2022-11-05T09:04:12.544Z,15.58
2022-11-05T09:05:45.294Z,15.61
2022-11-05T09:07:17.663Z,15.69
2022-11-05T09:08:49.990Z,15.76
2022-11-05T09:10:22.781Z,15.82
2022-11-05T09:12:11.667Z,15.89
2022-11-05T09:13:45.159Z,15.99
2022-11-05T09:15:17.749Z,16.09
2022-11-05T09:16:49.917Z,16.19
2022-11-05T09:18:24.718Z,16.28
2022-11-05T09:19:56.875Z,16.29
2022-11-05T09:21:29.208Z,16.37
2022-11-05T09:23:01.404Z,16.43
2022-11-05T09:24:33.768Z,16.51
2022-11-05T09:26:06.318Z,16.52
2022-11-05T09:27:38.785Z,16.57
2022-11-05T09:29:14.405Z,16.59
2022-11-05T09:30:49.158Z,16.62
2022-11-05T09:32:22.183Z,16.65
2022-11-05T09:33:54.498Z,16.67
2022-11-05T09:35:26.861Z,16.75
2022-11-05T09:36:59.306Z,16.84
2022-11-05T09:40:16.615Z,16.98
2022-11-05T09:41:49.937Z,17.04
2022-11-05T09:43:26.077Z,17.12
2022-11-05T09:45:04.702Z,17.13
2022-11-05T09:46:58.199Z,17.20
2022-11-05T09:48:32.660Z,17.29
2022-11-05T09:50:13.442Z,17.38
2022-11-05T09:51:45.737Z,17.41
2022-11-05T09:53:20.542Z,17.47
2022-11-05T09:54:54.822Z,17.53
2022-11-05T09:56:29.209Z,17.58
2022-11-05T09:58:04.302Z,17.64
2022-11-05T09:59:42.697Z,17.73
2022-11-05T10:01:36.506Z,17.81
2022-11-05T10:03:13.785Z,17.86
2022-11-05T10:04:48.995Z,17.90
2022-11-05T10:06:25.570Z,17.94
2022-11-05T10:08:06.589Z,17.95
2022-11-05T10:09:48.312Z,17.93
2022-11-05T10:11:36.002Z,17.94
2022-11-05T10:14:51.991Z,17.90
2022-11-05T10:16:40.187Z,17.85
2022-11-05T10:18:35.991Z,17.85
2022-11-05T10:20:43.446Z,17.82
2022-11-05T10:22:18.642Z,17.85
2022-11-05T10:23:50.747Z,17.79
2022-11-05T10:25:25.901Z,17.88
2022-11-05T10:26:58.222Z,17.89
2022-11-05T10:28:33.447Z,17.95
2022-11-05T10:30:06.725Z,18.03
2022-11-05T10:31:39.020Z,18.17
2022-11-05T10:33:13.302Z,18.19
2022-11-05T10:34:45.982Z,18.22
2022-11-05T10:36:28.624Z,18.34
2022-11-05T10:38:00.817Z,18.33
2022-11-05T10:39:34.223Z,18.34
2022-11-05T10:41:27.952Z,18.38
2022-11-05T10:43:19.970Z,18.39
2022-11-05T10:45:22.896Z,18.41
2022-11-05T10:47:07.266Z,18.47
2022-11-05T10:48:45.869Z,18.47
2022-11-05T10:50:26.360Z,18.52
2022-11-05T10:52:00.771Z,18.58
2022-11-05T10:53:35.576Z,18.63
2022-11-05T10:55:16.874Z,18.73
2022-11-05T10:56:49.336Z,18.75
2022-11-05T10:58:27.789Z,18.82
2022-11-05T11:00:24.636Z,18.87
2022-11-05T11:02:00.477Z,18.92
2022-11-05T11:03:46.118Z,18.93
2022-11-05T11:05:39.714Z,19.08
2022-11-05T11:07:29.840Z,19.13
2022-11-05T11:09:04.705Z,19.20
2022-11-05T11:10:54.158Z,19.36
2022-11-05T11:12:30.014Z,19.49
2022-11-05T11:14:18.601Z,19.65
2022-11-05T11:15:51.595Z,19.73
2022-11-05T11:17:30.060Z,19.81
2022-11-05T11:19:03.786Z,19.79
2022-11-05T11:20:44.775Z,19.87
2022-11-05T11:22:20.106Z,19.91
2022-11-05T11:24:05.695Z,19.96
2022-11-05T11:25:48.681Z,19.99
2022-11-05T11:27:30.293Z,20.04
2022-11-05T11:29:08.579Z,20.00
2022-11-05T11:30:47.937Z,20.01
2022-11-05T11:32:21.375Z,20.01
2022-11-05T11:34:17.930Z,20.00
2022-11-05T11:35:50.466Z,19.96
2022-11-05T11:37:27.546Z,19.96
2022-11-05T11:39:01.777Z,19.97
2022-11-05T11:40:36.888Z,19.94
2022-11-05T11:42:15.321Z,19.93
2022-11-05T11:43:47.880Z,19.90
2022-11-05T11:45:33.684Z,19.88
2022-11-05T11:47:12.823Z,19.93
2022-11-05T11:48:48.037Z,19.96
2022-11-05T11:50:36.339Z,20.06
2022-11-05T11:52:14.943Z,20.06
2022-11-05T11:53:57.920Z,20.04
2022-11-05T11:55:30.288Z,20.02
2022-11-05T11:57:03.190Z,20.05
2022-11-05T11:58:39.992Z,20.06
2022-11-05T12:00:13.171Z,19.98
2022-11-05T12:01:54.667Z,19.99
2022-11-05T12:03:36.794Z,19.97
2022-11-05T12:05:35.234Z,19.94
2022-11-05T12:07:19.474Z,19.88
2022-11-05T12:09:01.981Z,19.86
2022-11-05T12:10:41.223Z,19.77
2022-11-05T12:12:14.778Z,19.74
2022-11-05T12:14:00.551Z,19.75
2022-11-05T12:15:51.300Z,19.73
2022-11-05T12:17:32.290Z,19.70
2022-11-05T12:19:36.869Z,19.75
2022-11-05T12:21:52.169Z,19.70
2022-11-05T12:23:44.072Z,19.66
2022-11-05T12:25:27.543Z,19.66
2022-11-05T12:27:25.560Z,19.57
2022-11-05T12:29:19.165Z,19.55
2022-11-05T12:31:06.684Z,19.55
2022-11-05T12:33:03.475Z,19.51
2022-11-05T12:35:02.144Z,19.56
2022-11-05T12:37:05.593Z,19.60
2022-11-05T12:39:01.216Z,19.58
2022-11-05T12:40:37.326Z,19.56
2022-11-05T12:42:19.958Z,19.59
2022-11-05T12:44:07.363Z,19.51
2022-11-05T12:45:47.833Z,19.53
2022-11-05T12:47:49.373Z,19.52
2022-11-05T12:49:31.360Z,19.50
2022-11-05T12:51:21.925Z,19.50
2022-11-05T12:53:09.738Z,19.50
2022-11-05T12:55:05.475Z,19.43
2022-11-05T12:56:46.416Z,19.39
2022-11-05T12:58:38.988Z,19.35
2022-11-05T13:00:25.276Z,19.35
2022-11-05T13:02:18.836Z,19.23
2022-11-05T14:42:28.354Z,17.81
2022-11-05T14:44:06.398Z,17.73
2022-11-05T14:45:53.671Z,17.66
2022-11-05T14:47:28.959Z,17.57
2022-11-05T14:49:09.124Z,17.51
2022-11-05T14:50:42.673Z,17.44
2022-11-05T14:52:15.992Z,17.37
2022-11-05T14:53:48.604Z,17.30
2022-11-05T14:55:30.513Z,17.26
2022-11-05T14:57:02.937Z,17.18
2022-11-05T14:58:37.261Z,17.15
2022-11-05T15:00:41.020Z,17.13
2022-11-05T15:02:19.681Z,17.10
2022-11-05T15:04:18.544Z,17.05
2022-11-05T15:05:53.608Z,16.99
2022-11-05T15:07:36.040Z,16.91
2022-11-05T15:09:19.194Z,16.86
2022-11-05T15:10:51.535Z,16.79
2022-11-05T15:12:45.376Z,16.80
2022-11-05T15:14:31.256Z,16.72
2022-11-05T15:16:04.498Z,16.69
2022-11-05T15:17:46.308Z,16.65
2022-11-05T15:19:34.060Z,16.61
2022-11-05T15:21:07.986Z,16.53
2022-11-05T15:22:50.009Z,16.46
2022-11-05T15:24:22.638Z,16.41
2022-11-05T15:26:19.465Z,16.39
2022-11-05T15:28:20.881Z,16.36
2022-11-05T15:29:53.267Z,16.26
2022-11-05T15:31:35.649Z,16.20
2022-11-05T15:33:22.229Z,16.16
2022-11-05T15:34:56.193Z,16.11
2022-11-05T15:36:34.982Z,16.04
2022-11-05T15:38:18.474Z,15.96
2022-11-05T15:39:52.445Z,15.93
2022-11-05T15:41:28.962Z,15.90
2022-11-05T15:43:18.112Z,15.85
2022-11-05T15:44:55.168Z,15.75
2022-11-05T15:46:29.273Z,15.66
2022-11-05T15:48:13.529Z,15.59
2022-11-05T15:49:51.760Z,15.51
2022-11-05T15:51:27.177Z,15.43
2022-11-05T15:53:20.718Z,15.34
2022-11-05T15:55:13.320Z,15.30
2022-11-05T15:56:52.372Z,15.24
2022-11-05T15:58:24.776Z,15.17
2022-11-05T15:59:59.986Z,15.16
2022-11-05T16:01:37.818Z,15.13
2022-11-05T16:03:30.494Z,15.09
2022-11-05T16:05:07.235Z,15.02
2022-11-05T16:06:40.825Z,14.95
2022-11-05T16:09:54.548Z,14.83
2022-11-05T16:11:27.700Z,14.79
2022-11-05T16:13:38.756Z,14.76
2022-11-05T16:15:10.981Z,14.66
2022-11-05T16:16:43.904Z,14.63
2022-11-05T16:18:27.423Z,14.60
2022-11-05T16:19:59.654Z,14.49
2022-11-05T16:21:31.897Z,14.43
2022-11-05T16:23:06.949Z,14.36
2022-11-05T16:24:39.215Z,14.25
2022-11-05T16:28:32.212Z,14.20
2022-11-05T16:30:05.011Z,14.17
2022-11-05T16:31:37.544Z,14.15
2022-11-05T16:33:14.111Z,14.17
2022-11-05T16:34:48.988Z,14.13
2022-11-05T16:36:21.902Z,14.03
2022-11-05T16:37:54.138Z,13.88
2022-11-05T16:39:27.098Z,13.79
2022-11-05T16:41:00.864Z,13.68
2022-11-05T16:42:44.978Z,13.68
2022-11-05T16:44:17.469Z,13.61
2022-11-05T16:45:50.070Z,13.61
2022-11-05T16:47:23.289Z,13.61
2022-11-05T16:48:56.450Z,13.58
2022-11-05T16:50:32.334Z,13.56
2022-11-05T16:52:09.002Z,13.51
2022-11-05T16:53:41.757Z,13.41
2022-11-05T16:55:15.404Z,13.35
2022-11-05T16:56:47.836Z,13.29
2022-11-05T16:58:25.056Z,13.28
2022-11-05T16:59:59.494Z,13.25
2022-11-05T17:01:32.201Z,13.16
2022-11-05T17:03:04.732Z,13.13
2022-11-05T17:04:36.894Z,13.11
2022-11-05T17:06:09.428Z,13.09
2022-11-05T17:07:41.759Z,13.04
2022-11-05T17:09:14.416Z,13.03
2022-11-05T17:10:46.559Z,12.99
2022-11-05T17:12:18.913Z,12.93
2022-11-05T17:13:54.166Z,12.88
2022-11-05T17:15:31.543Z,12.90
2022-11-05T17:17:04.162Z,12.87
2022-11-05T17:18:36.405Z,12.85
2022-11-05T17:20:15.397Z,12.84
2022-11-05T17:21:47.935Z,12.79
2022-11-05T17:23:22.273Z,12.79
2022-11-05T17:24:54.745Z,12.72
2022-11-05T17:26:27.268Z,12.61
2022-11-05T17:27:59.735Z,12.55
2022-11-05T17:29:32.114Z,12.51
2022-11-05T17:31:06.682Z,12.50
2022-11-05T17:32:39.063Z,12.42
2022-11-05T17:34:11.366Z,12.35
2022-11-05T17:35:43.815Z,12.30
2022-11-05T17:38:49.127Z,12.17
2022-11-05T17:40:25.645Z,12.21
2022-11-05T17:41:57.795Z,12.17
2022-11-05T17:43:29.821Z,12.16
2022-11-05T17:45:02.178Z,12.14
2022-11-05T17:46:34.396Z,12.11
2022-11-05T17:48:06.810Z,12.08
2022-11-05T17:49:39.019Z,12.01
2022-11-05T17:51:12.940Z,12.00
2022-11-05T17:52:45.564Z,11.97
2022-11-05T17:54:17.832Z,11.91
2022-11-05T17:55:50.183Z,11.85
2022-11-05T17:57:22.572Z,11.80
2022-11-05T17:58:55.863Z,11.80
2022-11-05T18:00:28.166Z,11.78
2022-11-05T18:02:00.447Z,11.73
2022-11-05T18:03:33.149Z,11.67
2022-11-05T18:05:06.193Z,11.63
2022-11-05T18:08:10.592Z,11.62
2022-11-05T18:09:42.863Z,11.62
2022-11-05T18:11:15.086Z,11.58
2022-11-05T18:12:47.462Z,11.53
2022-11-05T18:14:23.900Z,11.44
2022-11-05T18:15:56.495Z,11.39
2022-11-05T18:17:30.293Z,11.35
2022-11-05T18:19:03.084Z,11.29
2022-11-05T18:20:35.748Z,11.23
2022-11-05T18:22:07.906Z,11.21
2022-11-05T18:23:40.230Z,11.18
2022-11-05T18:25:14.396Z,11.17
2022-11-05T18:26:46.718Z,11.09
2022-11-05T18:28:19.014Z,11.02
2022-11-05T18:29:51.613Z,11.00
2022-11-05T18:31:25.442Z,10.99
2022-11-05T18:32:57.620Z,10.98
2022-11-05T18:34:30.381Z,10.96
2022-11-05T18:36:02.689Z,10.89
2022-11-05T18:37:35.123Z,10.87
2022-11-05T18:39:08.926Z,10.83
2022-11-05T18:40:41.145Z,10.83
2022-11-05T18:42:13.437Z,10.83
2022-11-05T18:43:45.646Z,10.82
2022-11-05T18:45:17.633Z,10.82
2022-11-05T18:46:58.814Z,10.81
2022-11-05T18:48:31.169Z,10.78
2022-11-05T18:50:04.746Z,10.74
2022-11-05T18:51:37.366Z,10.65
2022-11-05T18:53:09.588Z,10.55
2022-11-05T18:54:41.900Z,10.53
2022-11-05T18:56:17.123Z,10.56
2022-11-05T18:57:49.354Z,10.50
2022-11-05T18:59:36.802Z,10.46
2022-11-05T19:01:26.874Z,10.44
2022-11-05T19:02:59.095Z,10.36
2022-11-05T19:04:31.839Z,10.31
2022-11-05T19:06:04.751Z,10.27
2022-11-05T19:07:40.738Z,10.28
2022-11-05T19:09:15.293Z,10.25
2022-11-05T19:10:51.681Z,10.24
2022-11-05T19:12:23.919Z,10.25
2022-11-05T19:13:56.215Z,10.27
2022-11-05T19:15:28.394Z,10.25
2022-11-05T19:17:01.456Z,10.25
2022-11-05T19:18:33.703Z,10.22
2022-11-05T19:20:06.817Z,10.21
2022-11-05T19:21:39.584Z,10.16
2022-11-05T19:23:13.985Z,10.13
2022-11-05T19:24:46.101Z,10.13
2022-11-05T19:26:28.385Z,10.18
2022-11-05T19:28:02.192Z,10.13
2022-11-05T19:29:34.627Z,10.11
2022-11-05T19:31:10.250Z,10.10
2022-11-05T19:32:42.495Z,10.04
2022-11-05T19:34:15.128Z,9.95
2022-11-05T19:35:47.274Z,9.86
2022-11-05T19:37:20.352Z,9.83
2022-11-05T19:39:00.796Z,9.82
2022-11-05T19:40:32.911Z,9.72
2022-11-05T19:42:05.477Z,9.69
2022-11-05T19:43:39.099Z,9.72
2022-11-05T19:45:38.241Z,9.73
2022-11-05T19:47:03.903Z,9.72
2022-11-05T19:48:37.454Z,9.67
2022-11-05T19:50:10.054Z,9.63
2022-11-05T19:51:43.319Z,9.64
2022-11-05T19:53:15.495Z,9.68
2022-11-05T19:54:47.669Z,9.69
2022-11-05T19:56:22.332Z,9.66
2022-11-05T19:57:54.705Z,9.52
2022-11-05T19:59:27.085Z,9.44
2022-11-05T20:00:59.388Z,9.34
2022-11-05T20:02:31.805Z,9.27
2022-11-05T20:05:36.090Z,9.14
2022-11-05T20:07:08.246Z,9.15
2022-11-05T20:08:59.677Z,9.14
2022-11-05T20:10:32.852Z,9.11
2022-11-05T20:12:05.012Z,9.10
2022-11-05T20:13:37.619Z,9.12
2022-11-05T20:15:09.957Z,9.10
2022-11-05T20:16:43.231Z,9.05
2022-11-05T20:18:16.542Z,9.03
2022-11-05T20:19:48.751Z,9.01
2022-11-05T20:21:20.860Z,8.99
2022-11-05T20:22:53.089Z,8.98
2022-11-05T20:24:25.705Z,8.93
2022-11-05T20:25:59.132Z,8.97
2022-11-05T20:27:31.256Z,8.98
2022-11-05T20:29:03.599Z,9.03
2022-11-05T20:30:36.130Z,9.04
2022-11-05T20:32:08.660Z,9.02
2022-11-05T20:35:13.437Z,9.01
2022-11-05T20:36:45.527Z,9.02
2022-11-05T20:38:17.872Z,8.98
2022-11-05T20:39:49.908Z,8.95
2022-11-05T20:41:22.363Z,8.93
2022-11-05T20:42:54.368Z,8.93
2022-11-05T20:44:26.817Z,8.89
2022-11-05T20:45:59.215Z,8.87
2022-11-05T20:47:31.347Z,8.86
2022-11-05T20:49:03.769Z,8.89
2022-11-05T20:50:40.323Z,8.95
2022-11-05T20:52:17.447Z,8.98
2022-11-05T20:53:49.615Z,8.90
2022-11-05T20:55:24.354Z,8.89
2022-11-05T20:56:56.582Z,8.89
2022-11-05T20:58:28.746Z,8.89
2022-11-05T21:00:01.039Z,8.90
2022-11-05T21:01:34.499Z,8.88
2022-11-05T21:03:07.457Z,8.86
2022-11-05T21:04:43.123Z,8.90
2022-11-05T21:06:16.504Z,8.93
2022-11-05T21:07:48.541Z,8.92
2022-11-05T21:09:20.707Z,8.94
2022-11-05T21:10:53.012Z,8.99
2022-11-05T21:12:25.138Z,8.99
2022-11-05T21:13:57.247Z,8.94
2022-11-05T21:15:29.229Z,8.92
2022-11-05T21:17:01.302Z,8.93
2022-11-05T21:18:35.405Z,8.97
2022-11-05T21:20:08.094Z,8.93
2022-11-05T21:21:41.192Z,8.93
2022-11-05T21:23:14.174Z,8.94
2022-11-05T21:24:46.191Z,8.92
2022-11-05T21:26:18.973Z,8.90
2022-11-05T21:27:51.067Z,8.85
2022-11-05T21:29:25.796Z,8.86
2022-11-05T21:31:01.912Z,8.88
2022-11-05T21:32:33.972Z,8.82
2022-11-05T21:34:06.054Z,8.78
2022-11-05T21:35:44.202Z,8.77
2022-11-05T21:37:16.438Z,8.71
2022-11-05T21:38:48.444Z,8.66
2022-11-05T21:40:20.497Z,8.62
2022-11-05T21:41:52.716Z,8.57
2022-11-05T21:43:24.744Z,8.58
2022-11-05T21:45:00.384Z,8.57
2022-11-05T21:46:32.797Z,8.54
2022-11-05T21:48:05.113Z,8.52
2022-11-05T21:49:37.894Z,8.50
2022-11-05T21:51:31.943Z,8.52
2022-11-05T21:53:22.792Z,8.53
2022-11-05T21:55:13.443Z,8.59
2022-11-05T21:57:09.714Z,8.58
2022-11-05T21:59:01.644Z,8.58
2022-11-05T22:00:33.831Z,8.60
2022-11-05T22:02:07.285Z,8.58
2022-11-05T22:03:39.600Z,8.56
2022-11-05T22:05:11.693Z,8.53
2022-11-05T22:06:43.711Z,8.47
2022-11-05T22:08:15.844Z,8.41
2022-11-05T22:09:48.205Z,8.38
2022-11-05T22:11:20.265Z,8.35
2022-11-05T22:12:52.325Z,8.36
2022-11-05T22:14:25.053Z,8.35
2022-11-05T22:15:57.420Z,8.28
2022-11-05T22:17:29.511Z,8.24
2022-11-05T22:19:01.596Z,8.26
2022-11-05T22:20:33.631Z,8.29
2022-11-05T22:22:06.345Z,8.26
2022-11-05T22:23:38.448Z,8.22
2022-11-05T22:25:13.783Z,8.18
2022-11-05T22:26:46.503Z,8.18
2022-11-05T22:28:18.554Z,8.20
2022-11-05T22:29:51.012Z,8.22
2022-11-05T22:31:23.270Z,8.26
2022-11-05T22:34:27.459Z,8.30
2022-11-05T22:35:59.457Z,8.23
2022-11-05T22:37:31.660Z,8.23
2022-11-05T22:39:04.532Z,8.25
2022-11-05T22:40:38.611Z,8.30
2022-11-05T22:42:10.716Z,8.29
2022-11-05T22:43:42.740Z,8.25
2022-11-05T22:45:14.778Z,8.17
2022-11-05T22:46:46.834Z,8.09
2022-11-05T22:48:18.953Z,8.05
2022-11-05T22:49:51.412Z,8.03
2022-11-05T22:51:32.032Z,8.07
2022-11-05T22:53:04.086Z,8.05
2022-11-05T22:54:39.220Z,8.04
2022-11-05T22:56:16.752Z,8.07
2022-11-05T22:57:49.091Z,8.05
2022-11-05T22:59:21.120Z,8.08
2022-11-05T23:00:53.160Z,8.10
2022-11-05T23:03:58.407Z,8.18